Bryce, UT

2:37 AM MST on December 09, 2016 (GMT -0700)
Bryce Canyon | | Change Station

Elev 7585 ft 37.71 °N, 112.15 °W | Updated 44 minutes ago

Clear
Clear
15 °F
Feels Like 5 °F
N
7
Wind Variable Wind from WSW

Today
High -- | Low -- °F
--% Chance of Precip.
Yesterday
High -- | Low -- °F
Precip. -- in
Pressure 30.26 in
Visibility 10.0 miles
Clouds Clear
Windchill 5 °F
Dew Point 10 °F
Humidity 80%
Rainfall 0.00 in
Snow Depth Not available.
7:32 AM 5:09 PM
Waxing Gibbous, 72% visible
METAR KBCE 090853Z AUTO 25006KT 10SM CLR M09/M12 A3025 RMK AO2 SLP245 T10941122 58007 TSNO
Pressure 30.26 in
Visibility 10.0 miles
Clouds Clear
Windchill 5 °F
Dew Point 10 °F
Humidity 80%
Rainfall 0.00 in
Snow Depth Not available.
7:32 AM 5:09 PM
Waxing Gibbous, 72% visible
METAR KBCE 090853Z AUTO 25006KT 10SM CLR M09/M12 A3025 RMK AO2 SLP245 T10941122 58007 TSNO

10-Day Weather Forecast

Almanac

Astronomy

Dec. 09, 2016 Rise Set
Actual Time
Civil Twilight
Nautical Twilight
Astronomical Twilight
Moon
Length of Visible Light
Length of Day
Tomorrow will be .
, % of the Moon is Illuminated

Today's Extremes

State Highs State Lows

Community

WunderPhotos

Upload Photos

1,956,371 photos uploaded!

WunderBlog® & News

Nearby

Air Quality

  Air Quality AQ Index Pollutant
Not available.

Snow Depth

Station Depth Elevation

Earthquake Activity

City Distance Mag. Time & Date
Minimum magnitude displayed is 2.5.

Coastal Water Temperatures

Place Temperature

Stations

Nearby Weather Stations

Station Location Temp. Windchill Dew Point Humidity Wind Precip. Elev Updated Type
                   

Watches & Warnings

There are currently no watches in effect.